Time;durP1;ratioP1;P1;durP2;ratioP2;P2;SDS_P1;SDS_P2;PMS_P1;PMS_P2;Temp;Humidity;BMP_temperature;BMP_pressure;BME280_temperature;BME280_humidity;BME280_pressure;Samples;Min_cycle;Max_cycle;Signal;HPM_P1;HPM_P2
2022/05/11 00:00:10;;;;;;;1.98;1.88;;;13.90;85.50;;;;;;5050495;28;20180;-78
2022/05/11 00:02:37;;;;;;;2.80;1.85;;;13.90;85.80;;;;;;5012739;28;20207;-78
2022/05/11 00:05:08;;;;;;;1.77;1.70;;;13.90;86.00;;;;;;5046501;28;20187;-78
2022/05/11 00:07:34;;;;;;;1.67;1.48;;;13.90;86.30;;;;;;5017070;28;20718;-77
2022/05/11 00:10:00;;;;;;;1.58;1.48;;;13.80;86.20;;;;;;5020545;28;20271;-79
2022/05/11 00:12:26;;;;;;;1.80;1.52;;;13.80;86.50;;;;;;5013773;28;20212;-77
2022/05/11 00:14:52;;;;;;;4.22;1.70;;;13.80;86.70;;;;;;5017555;28;20246;-78
2022/05/11 00:17:18;;;;;;;1.55;1.45;;;;;;;;;;5014137;28;20200;-79
2022/05/11 00:19:44;;;;;;;2.25;2.05;;;13.80;87.10;;;;;;5012435;28;20196;-77
2022/05/11 00:22:10;;;;;;;2.35;2.15;;;;;;;;;;5012974;28;20196;-77
2022/05/11 00:24:36;;;;;;;2.33;2.20;;;13.70;87.10;;;;;;5009716;28;20197;-77
2022/05/11 00:27:04;;;;;;;2.15;1.95;;;13.70;88.30;;;;;;5029040;28;20242;-77
2022/05/11 00:29:30;;;;;;;1.45;1.45;;;13.70;89.00;;;;;;5012481;28;20188;-77
2022/05/11 00:31:56;;;;;;;5.25;1.88;;;13.50;88.00;;;;;;5010591;28;20220;-77
2022/05/11 00:34:23;;;;;;;3.55;1.90;;;13.50;87.80;;;;;;5014629;28;20176;-77
2022/05/11 00:36:48;;;;;;;1.90;1.80;;;13.50;88.30;;;;;;5014744;28;20281;-77
2022/05/11 00:39:14;;;;;;;2.47;2.20;;;13.50;88.40;;;;;;5014995;28;20268;-79
2022/05/11 00:41:41;;;;;;;2.38;1.83;;;13.50;89.00;;;;;;5015819;28;20193;-78
2022/05/11 00:44:09;;;;;;;1.95;1.63;;;13.40;88.30;;;;;;5012895;28;20188;-78
2022/05/11 00:46:44;;;;;;;1.55;1.50;;;13.40;88.20;;;;;;5009342;28;20185;-77
2022/05/11 00:49:33;;;;;;;1.70;1.70;;;13.40;87.60;;;;;;5011359;28;20195;-77
2022/05/11 00:52:32;;;;;;;3.50;1.65;;;13.30;88.30;;;;;;5007754;28;20663;-78
2022/05/11 00:55:07;;;;;;;2.30;2.10;;;13.30;87.70;;;;;;4978747;28;20198;-78
2022/05/11 00:57:49;;;;;;;1.75;1.75;;;13.20;88.10;;;;;;4962416;28;20189;-78
2022/05/11 01:00:15;;;;;;;1.63;1.40;;;13.20;87.90;;;;;;4962997;28;20202;-78
2022/05/11 01:02:43;;;;;;;3.33;2.20;;;13.20;87.60;;;;;;4963500;28;20973;-78
2022/05/11 01:05:11;;;;;;;1.27;1.27;;;13.20;87.90;;;;;;4961745;28;20194;-78
2022/05/11 01:07:37;;;;;;;1.90;1.65;;;13.20;87.90;;;;;;4961902;28;20190;-78
2022/05/11 01:10:05;;;;;;;5.75;2.22;;;13.20;88.00;;;;;;4964222;28;20178;-78
2022/05/11 01:12:39;;;;;;;2.17;1.98;;;13.20;88.20;;;;;;4962853;28;20230;-78
2022/05/11 01:15:08;;;;;;;1.77;1.70;;;13.20;88.60;;;;;;4963152;28;20193;-78
2022/05/11 01:17:33;;;;;;;1.77;1.63;;;13.10;88.40;;;;;;4963090;28;20204;-78
2022/05/11 01:20:01;;;;;;;1.33;1.00;;;13.10;88.20;;;;;;4964013;28;20205;-78
2022/05/11 01:22:41;;;;;;;2.38;1.65;;;13.10;88.40;;;;;;4963332;28;20187;-78
2022/05/11 01:25:09;;;;;;;1.50;1.38;;;13.10;88.80;;;;;;4963547;28;20201;-77
2022/05/11 01:27:39;;;;;;;1.30;1.30;;;13.10;88.60;;;;;;4962873;28;20241;-77
2022/05/11 01:30:18;;;;;;;2.17;1.63;;;13.00;88.70;;;;;;4963441;28;20187;-78
2022/05/11 01:32:47;;;;;;;2.17;1.90;;;12.90;88.30;;;;;;5013614;28;20195;-78
2022/05/11 01:35:49;;;;;;;1.90;1.80;;;12.90;88.50;;;;;;5014207;28;20640;-78
2022/05/11 01:38:21;;;;;;;1.35;1.35;;;12.80;89.30;;;;;;5015580;28;20191;-78
2022/05/11 01:40:47;;;;;;;1.40;1.30;;;12.70;89.40;;;;;;5018912;28;20634;-78
2022/05/11 01:43:28;;;;;;;1.90;1.80;;;12.70;89.10;;;;;;5018883;28;20181;-80
2022/05/11 01:45:54;;;;;;;2.50;1.65;;;12.70;89.10;;;;;;5012901;28;20185;-78
2022/05/11 01:48:21;;;;;;;1.92;1.80;;;12.60;88.50;;;;;;5011915;28;20270;-78
2022/05/11 01:50:47;;;;;;;1.40;1.40;;;12.50;89.00;;;;;;5014306;28;20697;-78
2022/05/11 01:53:13;;;;;;;2.97;1.63;;;12.50;88.90;;;;;;5009792;28;20185;-77
2022/05/11 01:55:39;;;;;;;2.97;1.35;;;12.50;88.50;;;;;;5018639;28;20651;-78
2022/05/11 01:58:08;;;;;;;1.30;1.30;;;12.50;88.50;;;;;;5014227;28;20200;-77
2022/05/11 02:00:38;;;;;;;1.52;1.42;;;12.40;88.40;;;;;;5013956;28;20212;-77
2022/05/11 02:03:04;;;;;;;1.55;1.48;;;12.50;88.90;;;;;;5011754;28;20265;-77
2022/05/11 02:08:16;;;;;;;1.55;1.17;;;12.40;89.30;;;;;;5019144;28;20596;-79
2022/05/11 02:10:42;;;;;;;2.70;1.50;;;12.40;89.10;;;;;;5018099;28;20573;-77
2022/05/11 02:13:08;;;;;;;4.47;1.05;;;12.40;88.70;;;;;;5015533;28;20185;-78
2022/05/11 02:15:36;;;;;;;1.67;1.57;;;12.40;88.90;;;;;;5011989;28;20657;-78
2022/05/11 02:18:02;;;;;;;1.65;1.55;;;12.40;89.00;;;;;;5015977;28;20996;-77
2022/05/11 02:20:27;;;;;;;2.50;1.25;;;12.40;89.10;;;;;;5013784;28;20212;-77
2022/05/11 02:22:53;;;;;;;4.00;2.00;;;12.40;89.20;;;;;;5018060;28;20196;-78
2022/05/11 02:25:19;;;;;;;1.40;1.30;;;12.40;89.30;;;;;;5021599;28;20192;-77
2022/05/11 02:27:47;;;;;;;1.73;1.63;;;12.30;89.30;;;;;;5020238;28;20188;-78
2022/05/11 02:30:17;;;;;;;1.17;1.15;;;12.30;90.10;;;;;;5017598;28;20271;-78
2022/05/11 02:32:42;;;;;;;1.10;1.10;;;12.30;90.00;;;;;;5018783;28;20191;-77
2022/05/11 02:35:16;;;;;;;1.13;1.13;;;12.30;90.00;;;;;;5019367;28;20180;-77
2022/05/11 02:37:51;;;;;;;2.85;1.02;;;12.20;89.90;;;;;;5019581;28;20255;-79
2022/05/11 02:40:26;;;;;;;1.40;1.40;;;12.20;90.10;;;;;;5015154;28;20208;-78
2022/05/11 02:42:52;;;;;;;1.30;1.27;;;12.20;89.60;;;;;;5013463;28;20248;-78
2022/05/11 02:45:19;;;;;;;1.30;1.30;;;12.20;89.30;;;;;;5043428;28;21047;-78
2022/05/11 02:47:45;;;;;;;1.52;1.42;;;12.20;89.60;;;;;;5017727;28;20215;-78
2022/05/11 02:50:16;;;;;;;1.23;1.23;;;12.20;89.60;;;;;;5017210;28;20567;-79
2022/05/11 02:52:42;;;;;;;1.67;1.58;;;12.30;89.70;;;;;;5016272;28;20195;-79
2022/05/11 02:55:08;;;;;;;1.38;1.33;;;12.30;90.00;;;;;;5011704;28;20177;-79
2022/05/11 02:57:34;;;;;;;1.25;1.25;;;12.40;89.70;;;;;;5016236;28;20240;-79
2022/05/11 03:00:00;;;;;;;1.40;1.30;;;12.30;89.50;;;;;;5011353;28;20698;-79
2022/05/11 03:02:27;;;;;;;2.63;1.40;;;12.30;89.30;;;;;;5013005;28;20713;-78
2022/05/11 03:04:52;;;;;;;1.38;1.27;;;12.30;89.30;;;;;;5015374;28;20184;-78
2022/05/11 03:07:18;;;;;;;1.45;1.45;;;12.30;89.40;;;;;;5015733;28;20185;-77
2022/05/11 03:09:44;;;;;;;1.55;1.25;;;12.30;89.40;;;;;;5014886;28;20744;-77
2022/05/11 03:12:14;;;;;;;0.93;0.90;;;12.40;89.60;;;;;;5014170;28;20266;-78
2022/05/11 03:14:41;;;;;;;1.67;1.58;;;12.40;89.90;;;;;;5010295;28;20185;-78
2022/05/11 03:17:07;;;;;;;1.98;1.73;;;12.40;90.00;;;;;;5048880;28;20184;-78
2022/05/11 03:19:34;;;;;;;1.08;1.08;;;12.40;89.70;;;;;;5011897;28;20729;-77
2022/05/11 03:21:59;;;;;;;1.35;1.25;;;12.40;89.30;;;;;;5014857;28;20268;-78
2022/05/11 03:24:25;;;;;;;1.40;1.30;;;12.40;90.00;;;;;;5017177;28;20271;-77
2022/05/11 03:26:51;;;;;;;1.00;1.00;;;12.50;89.60;;;;;;5018235;28;20203;-78
2022/05/11 03:29:19;;;;;;;1.35;1.35;;;12.50;89.30;;;;;;5010253;28;20181;-79
2022/05/11 03:34:36;;;;;;;1.88;1.58;;;12.50;89.60;;;;;;5008905;28;20236;-78
2022/05/11 03:34:37;;;;;;;1.55;1.45;;;12.50;89.80;;;;;;5010125;28;20184;-78
2022/05/11 03:37:07;;;;;;;1.17;1.17;;;12.50;88.60;;;;;;5011737;28;20519;-78
2022/05/11 03:39:33;;;;;;;1.50;1.20;;;12.50;89.50;;;;;;5013336;28;20188;-77
2022/05/11 03:41:59;;;;;;;7.23;1.40;;;12.60;89.50;;;;;;5011984;28;20730;-78
2022/05/11 03:44:25;;;;;;;0.98;0.98;;;12.60;89.60;;;;;;5012074;28;20654;-79
2022/05/11 03:46:52;;;;;;;1.20;1.20;;;;;;;;;;5009665;28;20213;-78
2022/05/11 03:49:17;;;;;;;4.38;1.52;;;12.60;88.90;;;;;;5012355;28;20211;-78
2022/05/11 03:51:44;;;;;;;5.28;1.60;;;12.60;89.20;;;;;;5015332;28;20212;-78
2022/05/11 03:54:10;;;;;;;1.67;1.60;;;12.60;89.60;;;;;;5019495;28;20180;-78
2022/05/11 03:56:36;;;;;;;3.33;1.45;;;12.60;89.30;;;;;;5015449;28;20210;-79
2022/05/11 03:59:01;;;;;;;2.58;1.67;;;12.70;89.30;;;;;;5015038;28;20196;-77
2022/05/11 04:01:27;;;;;;;1.48;1.45;;;;;;;;;;5013743;28;20189;-77
2022/05/11 04:03:53;;;;;;;2.67;1.70;;;12.70;89.10;;;;;;5011025;28;20201;-78
2022/05/11 04:06:19;;;;;;;1.48;1.38;;;12.70;89.00;;;;;;5011513;28;20185;-78
2022/05/11 04:08:44;;;;;;;1.75;1.60;;;12.70;89.10;;;;;;5012300;28;20238;-78
2022/05/11 04:11:11;;;;;;;1.48;1.38;;;;;;;;;;5014975;28;20259;-78
2022/05/11 04:13:40;;;;;;;1.63;1.30;;;12.70;89.00;;;;;;5014838;28;20279;-78
2022/05/11 04:16:07;;;;;;;1.63;1.52;;;12.70;88.80;;;;;;5031977;28;20891;-77
2022/05/11 04:18:34;;;;;;;1.58;1.50;;;12.80;88.90;;;;;;5046022;28;20742;-80
2022/05/11 04:21:00;;;;;;;1.83;1.65;;;12.80;88.80;;;;;;5007994;28;21007;-80
2022/05/11 04:23:26;;;;;;;2.60;1.63;;;;;;;;;;5015486;28;20176;-79
2022/05/11 04:25:52;;;;;;;1.45;1.40;;;12.80;88.70;;;;;;5012387;28;20184;-78
2022/05/11 04:28:18;;;;;;;1.92;1.73;;;;;;;;;;5011183;28;20192;-78
2022/05/11 04:30:44;;;;;;;2.67;1.75;;;12.90;88.50;;;;;;5014739;28;20302;-77
2022/05/11 04:33:10;;;;;;;2.22;1.42;;;12.90;88.60;;;;;;5011998;28;20229;-77
2022/05/11 04:35:36;;;;;;;2.85;1.55;;;12.90;88.50;;;;;;5008702;28;20181;-75
2022/05/11 04:38:05;;;;;;;7.35;1.73;;;13.00;88.20;;;;;;5008816;28;20757;-76
2022/05/11 04:40:31;;;;;;;1.80;1.70;;;13.00;88.20;;;;;;5006933;28;20185;-75
2022/05/11 04:42:57;;;;;;;1.98;1.83;;;13.00;88.10;;;;;;5007132;28;20187;-77
2022/05/11 04:45:23;;;;;;;1.40;1.30;;;13.10;88.10;;;;;;5013171;28;20240;-77
2022/05/11 04:47:49;;;;;;;2.08;1.98;;;13.10;87.50;;;;;;5008796;28;20189;-77
2022/05/11 04:50:17;;;;;;;3.67;1.58;;;13.20;87.30;;;;;;5007056;28;20215;-77
2022/05/11 04:52:44;;;;;;;2.00;1.90;;;13.20;86.80;;;;;;5020454;28;20251;-77
2022/05/11 04:55:10;;;;;;;5.72;1.85;;;13.20;86.60;;;;;;5006753;28;20219;-78
2022/05/11 04:57:37;;;;;;;1.73;1.63;;;13.20;86.60;;;;;;5013143;28;20255;-78
2022/05/11 05:00:09;;;;;;;1.85;1.75;;;13.20;86.40;;;;;;5013381;28;20181;-79
2022/05/11 05:02:36;;;;;;;1.25;1.17;;;13.20;86.30;;;;;;5035969;28;20617;-77
2022/05/11 05:05:05;;;;;;;1.60;1.50;;;13.20;86.30;;;;;;5006425;28;20173;-77
2022/05/11 05:07:34;;;;;;;1.85;1.50;;;13.20;86.30;;;;;;5011765;28;20176;-76
2022/05/11 05:10:01;;;;;;;1.45;1.35;;;13.20;86.00;;;;;;5006028;28;20239;-79
2022/05/11 05:12:26;;;;;;;1.85;1.75;;;13.20;85.70;;;;;;5011624;28;20248;-77
2022/05/11 05:14:52;;;;;;;1.23;1.23;;;13.30;85.80;;;;;;5012533;28;20189;-78
2022/05/11 05:17:18;;;;;;;1.35;1.25;;;;;;;;;;5013118;28;20573;-78
2022/05/11 05:19:45;;;;;;;1.27;1.27;;;13.30;85.70;;;;;;5009429;28;20267;-78
2022/05/11 05:22:12;;;;;;;1.20;1.20;;;13.40;85.50;;;;;;5013341;28;20192;-78
2022/05/11 05:24:38;;;;;;;1.73;0.93;;;13.40;85.50;;;;;;5014653;28;20291;-77
2022/05/11 05:27:05;;;;;;;1.30;1.30;;;13.50;85.40;;;;;;5008478;28;20223;-77
2022/05/11 05:32:15;;;;;;;1.45;1.45;;;13.50;85.40;;;;;;5012811;28;20214;-76
2022/05/11 05:34:45;;;;;;;1.83;1.73;;;13.60;85.00;;;;;;5011626;28;20223;-79
2022/05/11 05:37:15;;;;;;;1.75;1.65;;;13.70;84.90;;;;;;5016089;28;20177;-77
2022/05/11 05:39:41;;;;;;;1.33;1.33;;;13.70;84.80;;;;;;5026087;28;20193;-77
2022/05/11 05:42:08;;;;;;;1.77;1.30;;;13.80;84.90;;;;;;5016136;28;20573;-77
2022/05/11 05:44:36;;;;;;;2.28;1.30;;;13.80;84.80;;;;;;5006152;28;20173;-77
2022/05/11 05:47:04;;;;;;;2.10;1.10;;;13.90;84.80;;;;;;5009715;28;20278;-77
2022/05/11 05:49:30;;;;;;;1.42;1.33;;;13.90;84.70;;;;;;5015658;28;20204;-78
2022/05/11 05:51:58;;;;;;;1.63;1.52;;;14.00;84.50;;;;;;5008805;28;20212;-76
2022/05/11 05:54:25;;;;;;;1.40;1.30;;;14.00;84.60;;;;;;5008413;28;20192;-79
2022/05/11 05:56:51;;;;;;;1.63;1.63;;;14.10;84.30;;;;;;5043140;28;20220;-78
2022/05/11 05:59:17;;;;;;;1.73;1.52;;;14.20;84.20;;;;;;5014265;28;20242;-79
2022/05/11 06:01:43;;;;;;;1.85;1.58;;;14.30;83.40;;;;;;5007102;28;20208;-76
2022/05/11 06:04:09;;;;;;;1.52;1.42;;;;;;;;;;5006341;28;20238;-77
2022/05/11 06:06:35;;;;;;;1.92;1.92;;;14.30;83.60;;;;;;5011479;28;20181;-76
2022/05/11 06:09:03;;;;;;;1.80;1.48;;;14.40;83.50;;;;;;5004148;28;20185;-76
2022/05/11 06:11:29;;;;;;;1.52;1.52;;;14.50;83.50;;;;;;4999861;28;20212;-77
2022/05/11 06:13:55;;;;;;;2.03;1.92;;;;;;;;;;5006278;28;20181;-77
2022/05/11 06:16:21;;;;;;;3.20;2.15;;;14.50;82.80;;;;;;5016888;28;20591;-77
2022/05/11 06:18:47;;;;;;;2.35;2.13;;;14.60;82.60;;;;;;5010705;28;20204;-78
2022/05/11 06:21:14;;;;;;;1.85;1.85;;;14.70;82.70;;;;;;5011202;28;20190;-78
2022/05/11 06:23:41;;;;;;;2.13;2.03;;;14.70;82.40;;;;;;5002941;28;20284;-77
2022/05/11 06:26:06;;;;;;;3.08;1.63;;;14.80;82.60;;;;;;5038011;28;20188;-78
2022/05/11 06:28:36;;;;;;;1.75;1.65;;;14.90;82.70;;;;;;5011759;28;20188;-78
2022/05/11 06:31:02;;;;;;;2.58;1.80;;;14.90;82.70;;;;;;5009685;28;20694;-77
2022/05/11 06:33:28;;;;;;;1.90;1.80;;;;;;;;;;5004404;28;20187;-78
2022/05/11 06:35:54;;;;;;;1.92;1.83;;;15.10;82.40;;;;;;5010171;28;20184;-79
2022/05/11 06:38:20;;;;;;;2.38;1.75;;;15.10;82.30;;;;;;5009268;28;20567;-78
2022/05/11 06:40:46;;;;;;;1.25;1.20;;;;;;;;;;5011301;28;20193;-78
2022/05/11 06:43:12;;;;;;;2.20;2.10;;;15.30;82.10;;;;;;5007266;28;20180;-79
2022/05/11 06:45:38;;;;;;;2.10;1.90;;;15.30;82.10;;;;;;5007673;28;20183;-80
2022/05/11 06:48:04;;;;;;;2.10;2.00;;;15.40;81.80;;;;;;5016303;28;20719;-79
2022/05/11 06:50:30;;;;;;;3.85;2.42;;;;;;;;;;5010790;28;20288;-77
2022/05/11 06:52:57;;;;;;;1.98;1.88;;;15.60;80.80;;;;;;5012295;28;20274;-76
2022/05/11 07:00:51;;;;;;;2.10;2.00;;;15.80;80.30;;;;;;5013050;28;20211;-75
2022/05/11 07:03:18;;;;;;;2.30;2.10;;;;;;;;;;5012077;28;20188;-76
2022/05/11 07:05:47;;;;;;;2.30;2.20;;;16.00;80.20;;;;;;5009091;28;20208;-78
2022/05/11 07:08:13;;;;;;;3.17;2.28;;;16.00;79.40;;;;;;5012719;28;20184;-78
2022/05/11 07:12:17;;;;;;;1.67;1.65;;;16.10;79.80;;;;;;5013727;28;20191;-77
2022/05/11 07:13:29;;;;;;;2.17;2.03;;;16.20;79.70;;;;;;5013069;28;20195;-76
2022/05/11 07:15:55;;;;;;;4.47;1.73;;;16.30;78.70;;;;;;5011350;28;20185;-77
2022/05/11 07:18:20;;;;;;;1.95;1.85;;;16.30;78.90;;;;;;5013681;28;20371;-78
2022/05/11 07:20:46;;;;;;;2.53;2.33;;;;;;;;;;5012423;28;20192;-77
2022/05/11 07:23:12;;;;;;;2.58;1.80;;;16.50;78.70;;;;;;5012113;28;20185;-77
2022/05/11 07:25:38;;;;;;;1.55;1.55;;;16.50;78.00;;;;;;5008960;28;20180;-78
2022/05/11 07:28:04;;;;;;;1.42;1.35;;;16.60;76.10;;;;;;5011301;28;20205;-78
2022/05/11 07:30:36;;;;;;;5.10;1.58;;;16.70;75.60;;;;;;5013194;28;20220;-78
2022/05/11 07:33:02;;;;;;;2.00;1.60;;;16.80;75.90;;;;;;5007860;28;20694;-78
2022/05/11 07:35:29;;;;;;;5.60;1.65;;;16.80;76.40;;;;;;5011756;28;20326;-78
2022/05/11 07:37:56;;;;;;;3.20;1.73;;;16.90;74.70;;;;;;5012078;28;20267;-78
2022/05/11 07:40:23;;;;;;;5.10;1.65;;;17.00;75.50;;;;;;5010632;28;20234;-78
2022/05/11 07:42:49;;;;;;;1.88;1.88;;;17.00;75.30;;;;;;5013558;28;20247;-78
2022/05/11 07:45:17;;;;;;;1.45;1.45;;;17.10;74.40;;;;;;5013261;28;20181;-78
2022/05/11 07:47:43;;;;;;;0.85;0.85;;;17.20;75.10;;;;;;5014950;28;20180;-78
2022/05/11 07:50:15;;;;;;;1.23;1.23;;;17.20;73.00;;;;;;5011528;28;20180;-79
2022/05/11 07:52:46;;;;;;;2.28;1.40;;;17.30;72.80;;;;;;5013819;28;20445;-77
2022/05/11 07:55:12;;;;;;;1.27;1.17;;;17.40;73.70;;;;;;5013887;28;20185;-77
2022/05/11 08:00:24;;;;;;;1.10;1.00;;;17.60;72.90;;;;;;5010620;28;20196;-76
2022/05/11 08:02:49;;;;;;;1.10;1.10;;;17.60;73.20;;;;;;5012012;28;20188;-77
2022/05/11 08:05:17;;;;;;;1.00;1.00;;;17.70;73.30;;;;;;5012212;28;20191;-77
2022/05/11 08:07:47;;;;;;;2.28;1.27;;;17.70;72.90;;;;;;5007849;28;20519;-78
2022/05/11 08:10:17;;;;;;;0.80;0.80;;;17.80;70.60;;;;;;5011503;28;20637;-78
2022/05/11 08:12:43;;;;;;;2.60;1.05;;;17.90;71.20;;;;;;5013106;28;20216;-78
2022/05/11 08:15:15;;;;;;;1.42;1.05;;;18.00;71.80;;;;;;5013186;28;20295;-78
2022/05/11 08:17:42;;;;;;;0.85;0.85;;;18.10;71.60;;;;;;5009893;28;20687;-78
2022/05/11 08:20:18;;;;;;;1.20;1.20;;;18.10;71.80;;;;;;5011450;28;20244;-78
2022/05/11 08:22:45;;;;;;;1.10;1.08;;;18.20;72.00;;;;;;5011079;28;20177;-77
2022/05/11 08:25:15;;;;;;;2.47;0.85;;;18.30;70.80;;;;;;5008252;28;20567;-77
2022/05/11 08:27:42;;;;;;;1.05;1.05;;;18.40;70.30;;;;;;5009505;28;20274;-78
2022/05/11 08:35:38;;;;;;;1.13;1.10;;;18.70;69.70;;;;;;5010866;28;20192;-78
2022/05/11 08:38:04;;;;;;;1.00;1.00;;;18.80;70.80;;;;;;5013100;28;20181;-78
2022/05/11 08:41:10;;;;;;;0.80;0.80;;;18.90;70.20;;;;;;5012771;28;20208;-77
2022/05/11 08:43:37;;;;;;;0.98;0.98;;;19.00;71.10;;;;;;4966016;28;20673;-78
2022/05/11 08:46:15;;;;;;;0.82;0.82;;;19.10;69.50;;;;;;4968590;28;20785;-78
2022/05/11 08:48:47;;;;;;;0.95;0.95;;;19.30;67.40;;;;;;4965958;28;20204;-78
2022/05/11 08:51:24;;;;;;;2.92;0.77;;;19.40;68.50;;;;;;4967115;28;20322;-77
2022/05/11 08:54:13;;;;;;;0.85;0.85;;;19.50;68.90;;;;;;4968037;28;20193;-78
2022/05/11 08:56:40;;;;;;;0.85;0.85;;;19.60;68.30;;;;;;4965910;28;20193;-78
2022/05/11 08:59:09;;;;;;;0.90;0.90;;;19.70;68.60;;;;;;4967281;28;20209;-78
2022/05/11 09:01:45;;;;;;;0.98;0.98;;;19.80;69.20;;;;;;4969611;28;20280;-77
2022/05/11 09:04:16;;;;;;;1.92;0.95;;;20.00;69.60;;;;;;4965677;28;20280;-77
2022/05/11 09:06:44;;;;;;;0.93;0.93;;;20.10;67.60;;;;;;4962026;28;20285;-77
2022/05/11 09:09:10;;;;;;;0.80;0.80;;;20.20;67.30;;;;;;4961629;28;20193;-78
2022/05/11 09:11:42;;;;;;;0.90;0.90;;;20.40;66.30;;;;;;4965882;28;20218;-78
2022/05/11 09:14:08;;;;;;;0.70;0.70;;;20.50;64.10;;;;;;4968311;28;20203;-78
2022/05/11 09:16:46;;;;;;;1.20;1.20;;;20.60;63.80;;;;;;4964254;28;20198;-77
2022/05/11 09:19:25;;;;;;;0.98;0.98;;;20.70;63.90;;;;;;4959974;28;20607;-77
2022/05/11 09:22:17;;;;;;;0.93;0.93;;;20.70;63.50;;;;;;5007556;28;20183;-78
2022/05/11 09:24:53;;;;;;;0.80;0.80;;;20.80;62.40;;;;;;5013361;28;20180;-77
2022/05/11 09:27:38;;;;;;;3.40;0.82;;;20.90;62.30;;;;;;5009169;28;20197;-77
2022/05/11 09:30:15;;;;;;;0.90;0.90;;;21.00;63.50;;;;;;5010994;28;20188;-77
2022/05/11 09:32:45;;;;;;;0.77;0.77;;;21.10;63.70;;;;;;5010228;28;20213;-77
2022/05/11 09:35:32;;;;;;;1.48;1.08;;;21.30;61.90;;;;;;5006108;28;20651;-77
2022/05/11 09:38:14;;;;;;;1.17;0.85;;;21.40;60.40;;;;;;5022906;28;20188;-77
2022/05/11 09:41:15;;;;;;;1.13;1.00;;;21.60;61.00;;;;;;5005018;28;20672;-78
2022/05/11 09:43:50;;;;;;;0.93;0.93;;;21.60;61.30;;;;;;5008718;28;20203;-78
2022/05/11 09:46:26;;;;;;;1.20;1.10;;;21.80;60.00;;;;;;5022782;28;20227;-78
2022/05/11 09:49:15;;;;;;;0.77;0.77;;;22.30;59.10;;;;;;5012932;28;20184;-77
2022/05/11 09:51:47;;;;;;;0.70;0.70;;;22.40;58.90;;;;;;4958856;28;20317;-78
2022/05/11 09:54:17;;;;;;;1.10;1.00;;;23.20;56.80;;;;;;4959983;28;20742;-78
2022/05/11 09:56:49;;;;;;;0.82;0.82;;;23.30;56.40;;;;;;4961772;28;20708;-77
2022/05/11 09:59:26;;;;;;;1.05;1.05;;;23.50;55.70;;;;;;4962283;28;20178;-77
2022/05/11 10:02:15;;;;;;;0.73;0.70;;;24.20;55.60;;;;;;4962010;28;20233;-77
2022/05/11 10:04:56;;;;;;;0.88;0.80;;;24.70;54.70;;;;;;4904955;29;20193;-77
2022/05/11 10:07:24;;;;;;;0.70;0.70;;;24.70;55.00;;;;;;4904131;29;20234;-78
2022/05/11 10:09:57;;;;;;;0.57;0.57;;;25.10;54.20;;;;;;4905306;29;20192;-77
2022/05/11 10:12:27;;;;;;;2.97;0.85;;;25.40;52.40;;;;;;4906092;29;21011;-78
2022/05/11 10:24:08;;;;;;;0.85;0.85;;;27.90;50.10;;;;;;4905277;29;20203;-77
2022/05/11 10:26:51;;;;;;;1.23;1.02;;;28.50;48.90;;;;;;4904543;29;20247;-78
2022/05/11 10:29:38;;;;;;;0.98;0.95;;;29.00;47.50;;;;;;4955430;28;20208;-78
2022/05/11 10:32:07;;;;;;;7.20;0.88;;;29.40;49.20;;;;;;4974841;28;20305;-78
2022/05/11 10:34:55;;;;;;;2.75;0.88;;;29.80;48.00;;;;;;4971527;28;20280;-78
2022/05/11 10:37:29;;;;;;;0.90;0.90;;;30.00;47.60;;;;;;4972583;28;20186;-79
2022/05/11 10:39:55;;;;;;;1.08;1.08;;;;;;;;;;4972430;28;20190;-78
2022/05/11 10:42:33;;;;;;;1.00;1.00;;;30.70;47.00;;;;;;5000877;28;20207;-78
2022/05/11 10:45:25;;;;;;;0.85;0.85;;;31.10;46.30;;;;;;5039441;28;20732;-78
2022/05/11 10:48:09;;;;;;;0.98;0.85;;;31.60;45.90;;;;;;5014715;28;20697;-78
2022/05/11 10:50:45;;;;;;;0.80;0.80;;;31.90;45.50;;;;;;5011226;28;20570;-78
2022/05/11 10:53:33;;;;;;;1.90;0.73;;;31.80;45.20;;;;;;5017422;28;20185;-78
2022/05/11 10:56:14;;;;;;;1.13;1.00;;;31.70;45.90;;;;;;5008538;28;20189;-77
2022/05/11 10:59:01;;;;;;;0.90;0.90;;;31.60;45.70;;;;;;5019859;28;20283;-77
2022/05/11 11:01:44;;;;;;;0.70;0.70;;;31.10;45.90;;;;;;5006656;28;20193;-77
2022/05/11 11:04:35;;;;;;;1.02;1.02;;;30.60;46.70;;;;;;5017067;28;20185;-77
2022/05/11 11:07:21;;;;;;;1.45;1.00;;;30.00;47.10;;;;;;5008161;28;20271;-78
2022/05/11 11:09:52;;;;;;;3.25;1.00;;;30.00;47.20;;;;;;5011750;28;20253;-77
2022/05/11 11:12:27;;;;;;;0.82;0.82;;;29.80;48.30;;;;;;5010602;28;20304;-79
2022/05/11 11:14:56;;;;;;;3.22;1.10;;;29.60;50.50;;;;;;5011344;28;20176;-79
2022/05/11 11:17:25;;;;;;;0.75;0.75;;;29.30;50.80;;;;;;5010299;28;20197;-78
2022/05/11 11:19:54;;;;;;;2.03;0.80;;;29.00;50.00;;;;;;5007362;28;20193;-79
2022/05/11 11:22:20;;;;;;;0.85;0.60;;;28.20;50.90;;;;;;5013734;28;20193;-79
2022/05/11 11:25:15;;;;;;;3.67;0.75;;;28.20;50.90;;;;;;5018109;28;20663;-79
2022/05/11 11:28:10;;;;;;;1.17;0.77;;;27.70;50.60;;;;;;4944759;28;20233;-77
2022/05/11 11:30:37;;;;;;;0.52;0.52;;;27.10;52.60;;;;;;4910255;29;20234;-78
2022/05/11 11:33:16;;;;;;;0.70;0.70;;;26.40;55.10;;;;;;4890663;29;20762;-78
2022/05/11 11:35:43;;;;;;;0.60;0.60;;;26.40;55.50;;;;;;4891523;29;20679;-79
2022/05/11 11:38:44;;;;;;;0.70;0.70;;;25.80;55.10;;;;;;4892798;29;20201;-78
2022/05/11 11:41:14;;;;;;;0.63;0.63;;;25.40;55.10;;;;;;4889637;29;20286;-77
2022/05/11 11:43:49;;;;;;;0.70;0.68;;;24.80;57.50;;;;;;4889838;29;20256;-77
2022/05/11 11:46:42;;;;;;;0.50;0.50;;;24.50;57.10;;;;;;4894121;29;20810;-78
2022/05/11 11:49:16;;;;;;;0.68;0.68;;;24.50;57.10;;;;;;4894219;29;20196;-76
2022/05/11 11:51:51;;;;;;;0.70;0.70;;;24.40;57.00;;;;;;4892088;29;21032;-77
2022/05/11 11:54:25;;;;;;;0.80;0.80;;;24.40;56.50;;;;;;4892475;29;20252;-77
2022/05/11 11:56:54;;;;;;;1.52;0.80;;;24.30;57.20;;;;;;4900608;29;20284;-77
2022/05/11 11:59:23;;;;;;;0.93;0.75;;;24.30;57.80;;;;;;4900541;29;20215;-77
2022/05/11 12:01:54;;;;;;;0.88;0.68;;;24.30;57.80;;;;;;4897624;29;20710;-77
2022/05/11 12:04:36;;;;;;;0.82;0.75;;;24.40;57.70;;;;;;4932124;28;20198;-78
2022/05/11 12:15:39;;;;;;;0.82;0.82;;;24.80;56.70;;;;;;5011505;28;20191;-76
2022/05/11 12:18:29;;;;;;;2.22;0.82;;;24.80;56.60;;;;;;5010010;28;20223;-79
2022/05/11 12:20:55;;;;;;;0.80;0.60;;;24.80;56.50;;;;;;5010617;28;20578;-79
2022/05/11 12:23:24;;;;;;;0.95;0.82;;;24.80;56.70;;;;;;5005664;28;20629;-78
2022/05/11 12:25:56;;;;;;;0.90;0.90;;;24.80;56.20;;;;;;5000241;28;20269;-77
2022/05/11 12:28:44;;;;;;;0.85;0.60;;;24.60;57.30;;;;;;5049109;28;20717;-77
2022/05/11 12:31:31;;;;;;;0.80;0.80;;;24.50;57.60;;;;;;5008234;28;20208;-77
2022/05/11 12:33:57;;;;;;;1.65;0.60;;;24.50;57.80;;;;;;5012576;28;20181;-75
2022/05/11 12:36:37;;;;;;;0.75;0.75;;;24.00;58.70;;;;;;5006679;28;20666;-78
2022/05/11 12:39:04;;;;;;;0.85;0.85;;;23.90;59.20;;;;;;5004536;28;20189;-78
2022/05/11 12:41:31;;;;;;;1.33;0.65;;;23.70;59.20;;;;;;5024782;28;20686;-74
2022/05/11 12:44:01;;;;;;;0.60;0.60;;;23.70;59.10;;;;;;5012624;28;20188;-77
2022/05/11 12:46:28;;;;;;;2.92;1.02;;;23.50;60.00;;;;;;5008566;28;20177;-78
2022/05/11 12:49:02;;;;;;;0.63;0.63;;;23.50;59.30;;;;;;5001055;28;20687;-78
2022/05/11 12:51:41;;;;;;;0.90;0.90;;;23.20;59.10;;;;;;5014312;28;20221;-77
2022/05/11 12:54:16;;;;;;;1.25;0.80;;;23.00;59.80;;;;;;5009887;28;20180;-77
2022/05/11 12:56:43;;;;;;;1.30;0.93;;;22.80;60.00;;;;;;5009773;28;20223;-77
2022/05/11 12:59:20;;;;;;;0.75;0.75;;;22.70;59.40;;;;;;5009708;28;20183;-76
2022/05/11 13:01:46;;;;;;;0.70;0.70;;;22.60;60.20;;;;;;5007619;28;20193;-76
2022/05/11 13:04:18;;;;;;;0.55;0.55;;;22.50;60.20;;;;;;5010130;28;20188;-78
2022/05/11 13:06:51;;;;;;;1.52;1.00;;;22.50;60.30;;;;;;5009698;28;20188;-79
2022/05/11 13:09:21;;;;;;;0.73;0.73;;;22.50;60.00;;;;;;5005783;28;20185;-78
2022/05/11 13:11:48;;;;;;;0.60;0.60;;;22.40;59.20;;;;;;5009181;28;20227;-78
2022/05/11 13:14:19;;;;;;;0.50;0.50;;;22.40;59.40;;;;;;5007585;28;20672;-75
2022/05/11 13:16:53;;;;;;;0.60;0.60;;;22.50;59.70;;;;;;4997652;28;20184;-77
2022/05/11 13:19:35;;;;;;;0.50;0.50;;;22.50;58.80;;;;;;5004188;28;20184;-75
2022/05/11 13:22:12;;;;;;;0.50;0.50;;;22.50;58.80;;;;;;5007832;28;20621;-78
2022/05/11 13:24:41;;;;;;;1.65;1.00;;;22.50;59.50;;;;;;5009990;28;20262;-76
2022/05/11 13:27:35;;;;;;;0.77;0.77;;;22.60;59.10;;;;;;5008174;28;20614;-75
2022/05/11 13:30:20;;;;;;;0.80;0.57;;;22.50;59.10;;;;;;5021061;28;20218;-75
2022/05/11 13:32:51;;;;;;;0.73;0.73;;;22.60;58.90;;;;;;5023218;28;20285;-75
2022/05/11 13:35:51;;;;;;;0.50;0.50;;;22.50;59.60;;;;;;5007230;28;20694;-77
2022/05/11 13:38:18;;;;;;;0.70;0.70;;;22.70;59.10;;;;;;5004441;28;20199;-77
2022/05/11 13:41:03;;;;;;;0.60;0.60;;;22.70;59.10;;;;;;5011370;28;20649;-77
2022/05/11 13:43:34;;;;;;;0.40;0.40;;;23.10;59.20;;;;;;5002853;28;20204;-77
2022/05/11 13:46:04;;;;;;;0.60;0.60;;;23.30;58.70;;;;;;5003126;28;20771;-77
2022/05/11 13:48:35;;;;;;;0.55;0.55;;;23.50;57.60;;;;;;5004980;28;20647;-77